sensor_id;sensor_type;location;lat;lon;timestamp;P1;durP1;ratioP1;P2;durP2;ratioP2
18338;SDS011;9295;44.484;11.240;2022-11-10T00:00:10;127.53;;;80.27;;
18338;SDS011;9295;44.484;11.240;2022-11-10T00:02:59;124.93;;;80.63;;
18338;SDS011;9295;44.484;11.240;2022-11-10T00:05:47;119.80;;;78.07;;
18338;SDS011;9295;44.484;11.240;2022-11-10T00:08:34;122.67;;;77.80;;
18338;SDS011;9295;44.484;11.240;2022-11-10T00:11:21;138.67;;;79.57;;
18338;SDS011;9295;44.484;11.240;2022-11-10T00:14:08;116.20;;;76.80;;
18338;SDS011;9295;44.484;11.240;2022-11-10T00:17:14;119.27;;;76.63;;
18338;SDS011;9295;44.484;11.240;2022-11-10T00:20:02;119.30;;;77.67;;
18338;SDS011;9295;44.484;11.240;2022-11-10T00:22:50;132.77;;;81.37;;
18338;SDS011;9295;44.484;11.240;2022-11-10T00:25:36;153.10;;;87.20;;
18338;SDS011;9295;44.484;11.240;2022-11-10T00:28:23;136.87;;;85.80;;
18338;SDS011;9295;44.484;11.240;2022-11-10T00:31:10;158.00;;;85.60;;
18338;SDS011;9295;44.484;11.240;2022-11-10T00:33:59;142.77;;;84.07;;
18338;SDS011;9295;44.484;11.240;2022-11-10T00:36:46;150.70;;;89.27;;
18338;SDS011;9295;44.484;11.240;2022-11-10T00:39:33;152.83;;;88.53;;
18338;SDS011;9295;44.484;11.240;2022-11-10T00:42:20;153.43;;;88.53;;
18338;SDS011;9295;44.484;11.240;2022-11-10T00:45:08;159.60;;;94.00;;
18338;SDS011;9295;44.484;11.240;2022-11-10T00:47:55;155.70;;;92.77;;
18338;SDS011;9295;44.484;11.240;2022-11-10T00:50:44;148.13;;;88.83;;
18338;SDS011;9295;44.484;11.240;2022-11-10T00:53:31;140.37;;;84.57;;
18338;SDS011;9295;44.484;11.240;2022-11-10T00:56:18;149.07;;;88.27;;
18338;SDS011;9295;44.484;11.240;2022-11-10T00:59:06;157.23;;;88.90;;
18338;SDS011;9295;44.484;11.240;2022-11-10T01:01:53;143.50;;;85.97;;
18338;SDS011;9295;44.484;11.240;2022-11-10T01:04:40;142.27;;;87.50;;
18338;SDS011;9295;44.484;11.240;2022-11-10T01:07:29;131.37;;;82.87;;
18338;SDS011;9295;44.484;11.240;2022-11-10T01:10:17;137.87;;;86.13;;
18338;SDS011;9295;44.484;11.240;2022-11-10T01:13:04;129.23;;;81.87;;
18338;SDS011;9295;44.484;11.240;2022-11-10T01:15:51;134.50;;;77.90;;
18338;SDS011;9295;44.484;11.240;2022-11-10T01:18:38;129.80;;;79.80;;
18338;SDS011;9295;44.484;11.240;2022-11-10T01:21:26;111.90;;;74.57;;
18338;SDS011;9295;44.484;11.240;2022-11-10T01:24:18;123.20;;;75.00;;
18338;SDS011;9295;44.484;11.240;2022-11-10T01:27:07;125.07;;;77.40;;
18338;SDS011;9295;44.484;11.240;2022-11-10T01:29:54;131.43;;;75.90;;
18338;SDS011;9295;44.484;11.240;2022-11-10T01:32:41;120.40;;;78.70;;
18338;SDS011;9295;44.484;11.240;2022-11-10T01:35:28;134.90;;;79.83;;
18338;SDS011;9295;44.484;11.240;2022-11-10T01:38:15;131.77;;;80.70;;
18338;SDS011;9295;44.484;11.240;2022-11-10T01:41:04;125.83;;;80.73;;
18338;SDS011;9295;44.484;11.240;2022-11-10T01:44:09;132.33;;;81.90;;
18338;SDS011;9295;44.484;11.240;2022-11-10T01:46:57;136.23;;;81.23;;
18338;SDS011;9295;44.484;11.240;2022-11-10T01:49:45;126.03;;;81.30;;
18338;SDS011;9295;44.484;11.240;2022-11-10T01:52:31;134.30;;;84.37;;
18338;SDS011;9295;44.484;11.240;2022-11-10T01:55:19;158.70;;;82.90;;
18338;SDS011;9295;44.484;11.240;2022-11-10T01:58:07;138.57;;;87.20;;
18338;SDS011;9295;44.484;11.240;2022-11-10T02:00:56;143.80;;;83.30;;
18338;SDS011;9295;44.484;11.240;2022-11-10T02:03:46;145.47;;;85.47;;
18338;SDS011;9295;44.484;11.240;2022-11-10T02:06:36;149.83;;;86.60;;
18338;SDS011;9295;44.484;11.240;2022-11-10T02:09:25;159.03;;;91.57;;
18338;SDS011;9295;44.484;11.240;2022-11-10T02:12:12;157.63;;;92.20;;
18338;SDS011;9295;44.484;11.240;2022-11-10T02:15:01;158.40;;;91.70;;
18338;SDS011;9295;44.484;11.240;2022-11-10T02:17:49;161.30;;;93.00;;
18338;SDS011;9295;44.484;11.240;2022-11-10T02:20:36;159.90;;;97.10;;
18338;SDS011;9295;44.484;11.240;2022-11-10T02:23:43;169.70;;;97.07;;
18338;SDS011;9295;44.484;11.240;2022-11-10T02:26:32;165.30;;;94.20;;
18338;SDS011;9295;44.484;11.240;2022-11-10T02:29:21;165.70;;;97.07;;
18338;SDS011;9295;44.484;11.240;2022-11-10T02:32:08;161.00;;;92.77;;
18338;SDS011;9295;44.484;11.240;2022-11-10T02:34:55;155.90;;;94.90;;
18338;SDS011;9295;44.484;11.240;2022-11-10T02:37:42;176.33;;;100.03;;
18338;SDS011;9295;44.484;11.240;2022-11-10T02:40:31;187.10;;;101.80;;
18338;SDS011;9295;44.484;11.240;2022-11-10T02:43:18;188.63;;;96.97;;
18338;SDS011;9295;44.484;11.240;2022-11-10T02:46:05;168.07;;;99.33;;
18338;SDS011;9295;44.484;11.240;2022-11-10T02:48:52;168.87;;;98.80;;
18338;SDS011;9295;44.484;11.240;2022-11-10T02:51:39;183.40;;;101.53;;
18338;SDS011;9295;44.484;11.240;2022-11-10T02:54:26;159.27;;;94.90;;
18338;SDS011;9295;44.484;11.240;2022-11-10T02:57:15;150.40;;;91.80;;
18338;SDS011;9295;44.484;11.240;2022-11-10T03:00:02;133.60;;;83.90;;
18338;SDS011;9295;44.484;11.240;2022-11-10T03:02:54;139.23;;;83.20;;
18338;SDS011;9295;44.484;11.240;2022-11-10T03:05:41;140.30;;;82.40;;
18338;SDS011;9295;44.484;11.240;2022-11-10T03:08:28;146.43;;;81.20;;
18338;SDS011;9295;44.484;11.240;2022-11-10T03:11:15;133.33;;;82.07;;
18338;SDS011;9295;44.484;11.240;2022-11-10T03:14:03;137.07;;;76.60;;
18338;SDS011;9295;44.484;11.240;2022-11-10T03:16:50;138.60;;;80.90;;
18338;SDS011;9295;44.484;11.240;2022-11-10T03:19:37;140.03;;;81.47;;
18338;SDS011;9295;44.484;11.240;2022-11-10T03:22:24;137.17;;;83.73;;
18338;SDS011;9295;44.484;11.240;2022-11-10T03:25:11;148.70;;;86.27;;
18338;SDS011;9295;44.484;11.240;2022-11-10T03:27:58;153.77;;;88.60;;
18338;SDS011;9295;44.484;11.240;2022-11-10T03:30:47;156.77;;;89.97;;
18338;SDS011;9295;44.484;11.240;2022-11-10T03:33:34;150.67;;;87.73;;
18338;SDS011;9295;44.484;11.240;2022-11-10T03:36:20;161.93;;;90.20;;
18338;SDS011;9295;44.484;11.240;2022-11-10T03:39:07;150.50;;;92.17;;
18338;SDS011;9295;44.484;11.240;2022-11-10T03:41:54;170.53;;;94.17;;
18338;SDS011;9295;44.484;11.240;2022-11-10T03:44:41;173.07;;;99.30;;
18338;SDS011;9295;44.484;11.240;2022-11-10T03:47:29;175.53;;;102.53;;
18338;SDS011;9295;44.484;11.240;2022-11-10T03:50:16;174.30;;;98.57;;
18338;SDS011;9295;44.484;11.240;2022-11-10T03:53:03;173.70;;;102.60;;
18338;SDS011;9295;44.484;11.240;2022-11-10T03:55:50;155.77;;;97.87;;
18338;SDS011;9295;44.484;11.240;2022-11-10T03:58:37;172.90;;;95.73;;
18338;SDS011;9295;44.484;11.240;2022-11-10T04:01:24;159.47;;;95.70;;
18338;SDS011;9295;44.484;11.240;2022-11-10T04:04:12;154.37;;;95.13;;
18338;SDS011;9295;44.484;11.240;2022-11-10T04:07:13;147.33;;;91.03;;
18338;SDS011;9295;44.484;11.240;2022-11-10T04:10:18;142.00;;;86.40;;
18338;SDS011;9295;44.484;11.240;2022-11-10T04:13:05;141.87;;;85.93;;
18338;SDS011;9295;44.484;11.240;2022-11-10T04:16:09;134.70;;;81.70;;
18338;SDS011;9295;44.484;11.240;2022-11-10T04:18:56;130.33;;;81.50;;
18338;SDS011;9295;44.484;11.240;2022-11-10T04:21:45;127.57;;;80.40;;
18338;SDS011;9295;44.484;11.240;2022-11-10T04:24:31;120.10;;;76.03;;
18338;SDS011;9295;44.484;11.240;2022-11-10T04:27:19;134.80;;;84.67;;
18338;SDS011;9295;44.484;11.240;2022-11-10T04:30:06;127.67;;;79.07;;
18338;SDS011;9295;44.484;11.240;2022-11-10T04:32:53;133.60;;;79.27;;
18338;SDS011;9295;44.484;11.240;2022-11-10T04:35:40;122.47;;;72.97;;
18338;SDS011;9295;44.484;11.240;2022-11-10T04:38:29;122.10;;;77.67;;
18338;SDS011;9295;44.484;11.240;2022-11-10T04:41:16;118.67;;;74.90;;
18338;SDS011;9295;44.484;11.240;2022-11-10T04:44:04;123.80;;;74.87;;
18338;SDS011;9295;44.484;11.240;2022-11-10T04:46:51;126.03;;;76.67;;
18338;SDS011;9295;44.484;11.240;2022-11-10T04:49:38;117.63;;;72.80;;
18338;SDS011;9295;44.484;11.240;2022-11-10T04:52:24;117.43;;;71.90;;
18338;SDS011;9295;44.484;11.240;2022-11-10T04:55:13;114.50;;;72.13;;
18338;SDS011;9295;44.484;11.240;2022-11-10T04:58:00;120.50;;;74.83;;
18338;SDS011;9295;44.484;11.240;2022-11-10T05:00:47;133.00;;;80.07;;
18338;SDS011;9295;44.484;11.240;2022-11-10T05:03:34;140.97;;;80.83;;
18338;SDS011;9295;44.484;11.240;2022-11-10T05:06:21;149.53;;;83.20;;
18338;SDS011;9295;44.484;11.240;2022-11-10T05:09:08;152.00;;;84.00;;
18338;SDS011;9295;44.484;11.240;2022-11-10T05:11:57;172.57;;;88.30;;
18338;SDS011;9295;44.484;11.240;2022-11-10T05:14:44;164.70;;;86.70;;
18338;SDS011;9295;44.484;11.240;2022-11-10T05:17:30;160.50;;;89.03;;
18338;SDS011;9295;44.484;11.240;2022-11-10T05:20:17;169.80;;;91.97;;
18338;SDS011;9295;44.484;11.240;2022-11-10T05:23:05;163.90;;;87.07;;
18338;SDS011;9295;44.484;11.240;2022-11-10T05:26:10;167.13;;;86.90;;
18338;SDS011;9295;44.484;11.240;2022-11-10T05:29:00;158.73;;;85.77;;
18338;SDS011;9295;44.484;11.240;2022-11-10T05:31:47;149.87;;;83.07;;
18338;SDS011;9295;44.484;11.240;2022-11-10T05:34:35;163.60;;;88.07;;
18338;SDS011;9295;44.484;11.240;2022-11-10T05:37:23;160.70;;;87.50;;
18338;SDS011;9295;44.484;11.240;2022-11-10T05:40:10;160.87;;;85.47;;
18338;SDS011;9295;44.484;11.240;2022-11-10T05:42:57;171.27;;;88.10;;
18338;SDS011;9295;44.484;11.240;2022-11-10T05:45:45;167.30;;;85.97;;
18338;SDS011;9295;44.484;11.240;2022-11-10T05:48:33;157.30;;;82.07;;
18338;SDS011;9295;44.484;11.240;2022-11-10T05:51:19;154.40;;;81.07;;
18338;SDS011;9295;44.484;11.240;2022-11-10T05:54:07;155.60;;;82.80;;
18338;SDS011;9295;44.484;11.240;2022-11-10T05:56:54;160.27;;;84.83;;
18338;SDS011;9295;44.484;11.240;2022-11-10T05:59:41;147.30;;;78.03;;
18338;SDS011;9295;44.484;11.240;2022-11-10T06:02:31;137.00;;;78.50;;
18338;SDS011;9295;44.484;11.240;2022-11-10T06:05:17;144.30;;;80.80;;
18338;SDS011;9295;44.484;11.240;2022-11-10T06:08:05;139.93;;;77.63;;
18338;SDS011;9295;44.484;11.240;2022-11-10T06:10:52;156.17;;;79.30;;
18338;SDS011;9295;44.484;11.240;2022-11-10T06:13:39;147.63;;;78.63;;
18338;SDS011;9295;44.484;11.240;2022-11-10T06:16:26;161.00;;;85.30;;
18338;SDS011;9295;44.484;11.240;2022-11-10T06:19:14;162.70;;;83.70;;
18338;SDS011;9295;44.484;11.240;2022-11-10T06:22:01;158.60;;;79.10;;
18338;SDS011;9295;44.484;11.240;2022-11-10T06:24:52;166.77;;;82.93;;
18338;SDS011;9295;44.484;11.240;2022-11-10T06:27:41;166.87;;;81.47;;
18338;SDS011;9295;44.484;11.240;2022-11-10T06:30:30;183.37;;;85.03;;
18338;SDS011;9295;44.484;11.240;2022-11-10T06:33:18;159.30;;;85.60;;
18338;SDS011;9295;44.484;11.240;2022-11-10T06:36:08;164.30;;;83.70;;
18338;SDS011;9295;44.484;11.240;2022-11-10T06:38:55;165.17;;;84.87;;
18338;SDS011;9295;44.484;11.240;2022-11-10T06:41:42;173.03;;;83.80;;
18338;SDS011;9295;44.484;11.240;2022-11-10T06:44:29;172.43;;;86.60;;
18338;SDS011;9295;44.484;11.240;2022-11-10T06:47:17;160.73;;;86.20;;
18338;SDS011;9295;44.484;11.240;2022-11-10T06:50:04;160.07;;;83.93;;
18338;SDS011;9295;44.484;11.240;2022-11-10T06:52:54;171.37;;;83.70;;
18338;SDS011;9295;44.484;11.240;2022-11-10T06:55:41;174.93;;;87.03;;
18338;SDS011;9295;44.484;11.240;2022-11-10T06:58:27;180.90;;;90.77;;
18338;SDS011;9295;44.484;11.240;2022-11-10T07:01:14;168.37;;;84.97;;
18338;SDS011;9295;44.484;11.240;2022-11-10T07:04:06;168.47;;;90.67;;
18338;SDS011;9295;44.484;11.240;2022-11-10T07:07:04;164.97;;;86.80;;
18338;SDS011;9295;44.484;11.240;2022-11-10T07:09:53;171.27;;;89.80;;
18338;SDS011;9295;44.484;11.240;2022-11-10T07:12:40;171.67;;;86.40;;
18338;SDS011;9295;44.484;11.240;2022-11-10T07:15:27;178.43;;;85.33;;
18338;SDS011;9295;44.484;11.240;2022-11-10T07:18:15;161.97;;;88.07;;
18338;SDS011;9295;44.484;11.240;2022-11-10T07:21:02;162.77;;;86.77;;
18338;SDS011;9295;44.484;11.240;2022-11-10T07:23:49;174.90;;;85.80;;
18338;SDS011;9295;44.484;11.240;2022-11-10T07:26:38;172.43;;;89.10;;
18338;SDS011;9295;44.484;11.240;2022-11-10T07:29:25;167.63;;;88.67;;
18338;SDS011;9295;44.484;11.240;2022-11-10T07:32:12;171.77;;;86.67;;
18338;SDS011;9295;44.484;11.240;2022-11-10T07:35:01;174.10;;;90.40;;
18338;SDS011;9295;44.484;11.240;2022-11-10T07:37:48;190.03;;;92.30;;
18338;SDS011;9295;44.484;11.240;2022-11-10T07:40:35;164.00;;;88.53;;
18338;SDS011;9295;44.484;11.240;2022-11-10T07:43:24;163.13;;;88.20;;
18338;SDS011;9295;44.484;11.240;2022-11-10T07:46:11;180.10;;;90.63;;
18338;SDS011;9295;44.484;11.240;2022-11-10T07:48:58;179.37;;;90.23;;
18338;SDS011;9295;44.484;11.240;2022-11-10T07:51:46;176.30;;;93.03;;
18338;SDS011;9295;44.484;11.240;2022-11-10T07:54:33;165.23;;;85.07;;
18338;SDS011;9295;44.484;11.240;2022-11-10T07:57:20;182.57;;;88.87;;
18338;SDS011;9295;44.484;11.240;2022-11-10T08:00:09;183.83;;;91.30;;
18338;SDS011;9295;44.484;11.240;2022-11-10T08:03:01;190.17;;;95.27;;
18338;SDS011;9295;44.484;11.240;2022-11-10T08:05:49;192.97;;;93.00;;
18338;SDS011;9295;44.484;11.240;2022-11-10T08:08:35;201.27;;;94.27;;
18338;SDS011;9295;44.484;11.240;2022-11-10T08:11:22;190.40;;;92.63;;
18338;SDS011;9295;44.484;11.240;2022-11-10T08:14:09;200.93;;;95.00;;
18338;SDS011;9295;44.484;11.240;2022-11-10T08:16:58;207.90;;;96.00;;
18338;SDS011;9295;44.484;11.240;2022-11-10T08:19:45;210.57;;;96.30;;
18338;SDS011;9295;44.484;11.240;2022-11-10T08:22:32;196.57;;;94.47;;
18338;SDS011;9295;44.484;11.240;2022-11-10T08:25:19;195.43;;;92.53;;
18338;SDS011;9295;44.484;11.240;2022-11-10T08:28:07;189.23;;;95.57;;
18338;SDS011;9295;44.484;11.240;2022-11-10T08:30:55;202.33;;;97.07;;
18338;SDS011;9295;44.484;11.240;2022-11-10T08:33:51;195.40;;;92.93;;
18338;SDS011;9295;44.484;11.240;2022-11-10T08:36:37;190.00;;;93.10;;
18338;SDS011;9295;44.484;11.240;2022-11-10T08:39:25;170.47;;;93.17;;
18338;SDS011;9295;44.484;11.240;2022-11-10T08:42:23;176.30;;;89.43;;
18338;SDS011;9295;44.484;11.240;2022-11-10T08:45:09;175.77;;;88.00;;
18338;SDS011;9295;44.484;11.240;2022-11-10T08:47:57;172.13;;;91.83;;
18338;SDS011;9295;44.484;11.240;2022-11-10T08:50:46;171.00;;;91.97;;
18338;SDS011;9295;44.484;11.240;2022-11-10T08:53:34;165.63;;;93.87;;
18338;SDS011;9295;44.484;11.240;2022-11-10T08:56:21;170.13;;;91.30;;
18338;SDS011;9295;44.484;11.240;2022-11-10T08:59:08;162.27;;;86.93;;
18338;SDS011;9295;44.484;11.240;2022-11-10T09:01:56;154.07;;;87.47;;
18338;SDS011;9295;44.484;11.240;2022-11-10T09:04:43;150.80;;;87.13;;
18338;SDS011;9295;44.484;11.240;2022-11-10T09:07:32;154.23;;;88.10;;
18338;SDS011;9295;44.484;11.240;2022-11-10T09:10:27;152.27;;;82.87;;
18338;SDS011;9295;44.484;11.240;2022-11-10T09:13:14;141.50;;;83.87;;
18338;SDS011;9295;44.484;11.240;2022-11-10T09:16:02;151.73;;;86.50;;
18338;SDS011;9295;44.484;11.240;2022-11-10T09:18:50;141.47;;;84.83;;
18338;SDS011;9295;44.484;11.240;2022-11-10T09:21:37;144.93;;;81.30;;
18338;SDS011;9295;44.484;11.240;2022-11-10T09:24:25;150.00;;;83.17;;
18338;SDS011;9295;44.484;11.240;2022-11-10T09:27:33;139.47;;;81.73;;
18338;SDS011;9295;44.484;11.240;2022-11-10T09:30:21;146.03;;;82.97;;
18338;SDS011;9295;44.484;11.240;2022-11-10T09:33:09;149.20;;;88.80;;
18338;SDS011;9295;44.484;11.240;2022-11-10T09:35:56;162.20;;;89.40;;
18338;SDS011;9295;44.484;11.240;2022-11-10T09:38:44;159.93;;;93.40;;
18338;SDS011;9295;44.484;11.240;2022-11-10T09:41:32;182.03;;;93.47;;
18338;SDS011;9295;44.484;11.240;2022-11-10T09:44:23;181.27;;;94.03;;
18338;SDS011;9295;44.484;11.240;2022-11-10T09:47:14;190.73;;;97.30;;
18338;SDS011;9295;44.484;11.240;2022-11-10T09:50:28;163.93;;;91.77;;
18338;SDS011;9295;44.484;11.240;2022-11-10T09:53:20;168.60;;;94.80;;
18338;SDS011;9295;44.484;11.240;2022-11-10T09:56:13;171.83;;;97.13;;
18338;SDS011;9295;44.484;11.240;2022-11-10T09:59:09;171.73;;;93.90;;
18338;SDS011;9295;44.484;11.240;2022-11-10T10:02:07;177.43;;;95.77;;
18338;SDS011;9295;44.484;11.240;2022-11-10T10:05:16;193.03;;;99.53;;
18338;SDS011;9295;44.484;11.240;2022-11-10T10:08:22;181.35;;;98.30;;
18338;SDS011;9295;44.484;11.240;2022-11-10T10:11:20;178.50;;;97.50;;
18338;SDS011;9295;44.484;11.240;2022-11-10T10:14:26;185.10;;;94.30;;
18338;SDS011;9295;44.484;11.240;2022-11-10T10:17:26;181.53;;;98.40;;
18338;SDS011;9295;44.484;11.240;2022-11-10T10:20:26;191.80;;;104.03;;
18338;SDS011;9295;44.484;11.240;2022-11-10T10:23:22;191.47;;;100.77;;
18338;SDS011;9295;44.484;11.240;2022-11-10T10:26:36;188.13;;;101.23;;
18338;SDS011;9295;44.484;11.240;2022-11-10T10:29:28;188.37;;;102.67;;
18338;SDS011;9295;44.484;11.240;2022-11-10T10:32:21;184.57;;;96.80;;
18338;SDS011;9295;44.484;11.240;2022-11-10T10:35:11;177.80;;;94.60;;
18338;SDS011;9295;44.484;11.240;2022-11-10T10:37:59;165.23;;;92.83;;
18338;SDS011;9295;44.484;11.240;2022-11-10T10:40:50;174.30;;;91.80;;
18338;SDS011;9295;44.484;11.240;2022-11-10T10:43:38;172.83;;;94.10;;
18338;SDS011;9295;44.484;11.240;2022-11-10T10:46:28;166.97;;;93.90;;
18338;SDS011;9295;44.484;11.240;2022-11-10T10:49:20;164.47;;;92.83;;
18338;SDS011;9295;44.484;11.240;2022-11-10T10:52:15;169.67;;;96.23;;
18338;SDS011;9295;44.484;11.240;2022-11-10T10:55:06;180.63;;;94.10;;
18338;SDS011;9295;44.484;11.240;2022-11-10T10:57:55;175.20;;;96.30;;
18338;SDS011;9295;44.484;11.240;2022-11-10T11:00:45;167.73;;;95.50;;
18338;SDS011;9295;44.484;11.240;2022-11-10T11:03:38;161.17;;;90.90;;
18338;SDS011;9295;44.484;11.240;2022-11-10T11:06:32;169.23;;;93.30;;
18338;SDS011;9295;44.484;11.240;2022-11-10T11:09:21;161.67;;;88.73;;
18338;SDS011;9295;44.484;11.240;2022-11-10T11:12:10;159.53;;;92.03;;
18338;SDS011;9295;44.484;11.240;2022-11-10T11:15:09;161.97;;;89.07;;
18338;SDS011;9295;44.484;11.240;2022-11-10T11:18:10;152.30;;;89.80;;
18338;SDS011;9295;44.484;11.240;2022-11-10T11:21:04;163.53;;;92.97;;
18338;SDS011;9295;44.484;11.240;2022-11-10T11:23:58;150.50;;;87.40;;
18338;SDS011;9295;44.484;11.240;2022-11-10T11:27:01;154.90;;;89.60;;
18338;SDS011;9295;44.484;11.240;2022-11-10T11:29:56;138.50;;;85.60;;
18338;SDS011;9295;44.484;11.240;2022-11-10T11:36:13;148.10;;;85.77;;
18338;SDS011;9295;44.484;11.240;2022-11-10T11:39:11;149.00;;;86.47;;
18338;SDS011;9295;44.484;11.240;2022-11-10T11:42:11;146.37;;;86.73;;
18338;SDS011;9295;44.484;11.240;2022-11-10T11:45:09;135.40;;;80.37;;
18338;SDS011;9295;44.484;11.240;2022-11-10T11:48:10;135.30;;;81.73;;
18338;SDS011;9295;44.484;11.240;2022-11-10T11:51:24;125.53;;;77.40;;
18338;SDS011;9295;44.484;11.240;2022-11-10T11:54:21;128.07;;;75.07;;
18338;SDS011;9295;44.484;11.240;2022-11-10T11:57:15;124.23;;;77.20;;
18338;SDS011;9295;44.484;11.240;2022-11-10T12:00:13;131.93;;;77.97;;
18338;SDS011;9295;44.484;11.240;2022-11-10T12:03:07;138.87;;;74.37;;
18338;SDS011;9295;44.484;11.240;2022-11-10T12:06:14;112.23;;;68.23;;
18338;SDS011;9295;44.484;11.240;2022-11-10T12:09:17;118.10;;;68.97;;
18338;SDS011;9295;44.484;11.240;2022-11-10T12:12:31;125.60;;;67.70;;
18338;SDS011;9295;44.484;11.240;2022-11-10T12:15:42;115.23;;;69.10;;
18338;SDS011;9295;44.484;11.240;2022-11-10T12:18:35;121.20;;;71.30;;
18338;SDS011;9295;44.484;11.240;2022-11-10T12:21:35;125.20;;;72.97;;
18338;SDS011;9295;44.484;11.240;2022-11-10T12:24:31;125.17;;;73.63;;
18338;SDS011;9295;44.484;11.240;2022-11-10T12:27:32;131.97;;;72.00;;
18338;SDS011;9295;44.484;11.240;2022-11-10T12:30:22;118.37;;;70.97;;
18338;SDS011;9295;44.484;11.240;2022-11-10T12:33:13;127.10;;;73.07;;
18338;SDS011;9295;44.484;11.240;2022-11-10T12:36:04;118.63;;;72.57;;
18338;SDS011;9295;44.484;11.240;2022-11-10T12:39:00;119.47;;;68.27;;
18338;SDS011;9295;44.484;11.240;2022-11-10T12:41:53;119.87;;;72.10;;
18338;SDS011;9295;44.484;11.240;2022-11-10T12:44:47;119.70;;;68.50;;
18338;SDS011;9295;44.484;11.240;2022-11-10T12:47:42;114.13;;;66.07;;
18338;SDS011;9295;44.484;11.240;2022-11-10T12:50:33;114.87;;;69.70;;
18338;SDS011;9295;44.484;11.240;2022-11-10T12:53:26;114.67;;;68.20;;
18338;SDS011;9295;44.484;11.240;2022-11-10T12:56:18;99.03;;;62.77;;
18338;SDS011;9295;44.484;11.240;2022-11-10T12:59:20;109.27;;;65.53;;
18338;SDS011;9295;44.484;11.240;2022-11-10T13:02:22;121.03;;;65.13;;
18338;SDS011;9295;44.484;11.240;2022-11-10T13:08:22;102.20;;;61.73;;
18338;SDS011;9295;44.484;11.240;2022-11-10T13:11:22;102.17;;;63.07;;
18338;SDS011;9295;44.484;11.240;2022-11-10T13:14:21;110.30;;;63.60;;
18338;SDS011;9295;44.484;11.240;2022-11-10T13:17:11;103.53;;;61.37;;
18338;SDS011;9295;44.484;11.240;2022-11-10T13:20:46;102.83;;;60.73;;
18338;SDS011;9295;44.484;11.240;2022-11-10T13:26:56;107.83;;;61.70;;
18338;SDS011;9295;44.484;11.240;2022-11-10T13:29:54;111.87;;;64.77;;
18338;SDS011;9295;44.484;11.240;2022-11-10T13:32:41;117.33;;;65.03;;
18338;SDS011;9295;44.484;11.240;2022-11-10T13:35:48;115.30;;;68.00;;
18338;SDS011;9295;44.484;11.240;2022-11-10T13:38:39;115.63;;;71.20;;
18338;SDS011;9295;44.484;11.240;2022-11-10T13:41:29;111.33;;;69.03;;
18338;SDS011;9295;44.484;11.240;2022-11-10T13:44:21;121.67;;;72.93;;
18338;SDS011;9295;44.484;11.240;2022-11-10T13:50:39;117.83;;;67.93;;
18338;SDS011;9295;44.484;11.240;2022-11-10T13:53:38;108.97;;;67.17;;
18338;SDS011;9295;44.484;11.240;2022-11-10T13:56:45;118.40;;;69.77;;
18338;SDS011;9295;44.484;11.240;2022-11-10T13:59:49;114.70;;;68.77;;
18338;SDS011;9295;44.484;11.240;2022-11-10T14:02:46;108.53;;;65.00;;
18338;SDS011;9295;44.484;11.240;2022-11-10T14:08:49;107.33;;;63.17;;
18338;SDS011;9295;44.484;11.240;2022-11-10T14:11:42;109.23;;;64.60;;
18338;SDS011;9295;44.484;11.240;2022-11-10T14:14:38;106.37;;;65.73;;
18338;SDS011;9295;44.484;11.240;2022-11-10T14:17:38;97.93;;;61.87;;
18338;SDS011;9295;44.484;11.240;2022-11-10T14:20:29;93.13;;;55.87;;
18338;SDS011;9295;44.484;11.240;2022-11-10T14:23:24;99.47;;;60.13;;
18338;SDS011;9295;44.484;11.240;2022-11-10T14:26:15;89.80;;;54.77;;
18338;SDS011;9295;44.484;11.240;2022-11-10T14:32:24;99.37;;;59.87;;
18338;SDS011;9295;44.484;11.240;2022-11-10T14:35:20;100.07;;;59.57;;
18338;SDS011;9295;44.484;11.240;2022-11-10T14:38:14;93.80;;;58.97;;
18338;SDS011;9295;44.484;11.240;2022-11-10T14:41:11;97.97;;;58.80;;
18338;SDS011;9295;44.484;11.240;2022-11-10T14:44:02;103.80;;;62.60;;
18338;SDS011;9295;44.484;11.240;2022-11-10T14:46:50;100.10;;;56.37;;
18338;SDS011;9295;44.484;11.240;2022-11-10T14:49:38;102.87;;;62.37;;
18338;SDS011;9295;44.484;11.240;2022-11-10T14:52:26;98.37;;;60.60;;
18338;SDS011;9295;44.484;11.240;2022-11-10T14:55:14;104.70;;;61.70;;
18338;SDS011;9295;44.484;11.240;2022-11-10T14:58:04;108.97;;;63.90;;
18338;SDS011;9295;44.484;11.240;2022-11-10T15:00:56;102.50;;;61.67;;
18338;SDS011;9295;44.484;11.240;2022-11-10T15:03:44;108.27;;;64.47;;
18338;SDS011;9295;44.484;11.240;2022-11-10T15:06:32;105.50;;;64.77;;
18338;SDS011;9295;44.484;11.240;2022-11-10T15:09:25;107.77;;;65.53;;
18338;SDS011;9295;44.484;11.240;2022-11-10T15:12:21;118.07;;;68.20;;
18338;SDS011;9295;44.484;11.240;2022-11-10T15:15:17;111.47;;;65.57;;
18338;SDS011;9295;44.484;11.240;2022-11-10T15:18:05;118.23;;;66.43;;
18338;SDS011;9295;44.484;11.240;2022-11-10T15:21:08;109.03;;;66.47;;
18338;SDS011;9295;44.484;11.240;2022-11-10T15:23:58;111.57;;;64.70;;
18338;SDS011;9295;44.484;11.240;2022-11-10T15:26:48;114.37;;;65.97;;
18338;SDS011;9295;44.484;11.240;2022-11-10T15:29:35;111.77;;;67.80;;
18338;SDS011;9295;44.484;11.240;2022-11-10T15:32:24;117.00;;;67.70;;
18338;SDS011;9295;44.484;11.240;2022-11-10T15:35:25;117.43;;;64.97;;
18338;SDS011;9295;44.484;11.240;2022-11-10T15:38:27;115.00;;;65.80;;
18338;SDS011;9295;44.484;11.240;2022-11-10T15:41:21;115.23;;;66.80;;
18338;SDS011;9295;44.484;11.240;2022-11-10T15:44:16;112.50;;;65.63;;
18338;SDS011;9295;44.484;11.240;2022-11-10T15:47:04;109.77;;;65.80;;
18338;SDS011;9295;44.484;11.240;2022-11-10T15:49:55;106.87;;;62.73;;
18338;SDS011;9295;44.484;11.240;2022-11-10T15:52:42;120.40;;;68.10;;
18338;SDS011;9295;44.484;11.240;2022-11-10T15:55:29;119.20;;;65.00;;
18338;SDS011;9295;44.484;11.240;2022-11-10T15:58:19;114.80;;;67.30;;
18338;SDS011;9295;44.484;11.240;2022-11-10T16:01:09;107.23;;;62.10;;
18338;SDS011;9295;44.484;11.240;2022-11-10T16:03:57;108.47;;;64.60;;
18338;SDS011;9295;44.484;11.240;2022-11-10T16:06:45;109.53;;;65.70;;
18338;SDS011;9295;44.484;11.240;2022-11-10T16:09:32;111.50;;;63.50;;
18338;SDS011;9295;44.484;11.240;2022-11-10T16:12:19;109.57;;;65.77;;
18338;SDS011;9295;44.484;11.240;2022-11-10T16:15:08;114.23;;;65.90;;
18338;SDS011;9295;44.484;11.240;2022-11-10T16:18:04;110.93;;;64.03;;
18338;SDS011;9295;44.484;11.240;2022-11-10T16:20:55;112.73;;;65.87;;
18338;SDS011;9295;44.484;11.240;2022-11-10T16:23:43;119.13;;;64.23;;
18338;SDS011;9295;44.484;11.240;2022-11-10T16:26:30;113.90;;;66.47;;
18338;SDS011;9295;44.484;11.240;2022-11-10T16:29:19;122.30;;;68.00;;
18338;SDS011;9295;44.484;11.240;2022-11-10T16:32:07;106.80;;;64.37;;
18338;SDS011;9295;44.484;11.240;2022-11-10T16:34:56;107.80;;;64.10;;
18338;SDS011;9295;44.484;11.240;2022-11-10T16:37:43;101.30;;;61.23;;
18338;SDS011;9295;44.484;11.240;2022-11-10T16:40:30;103.47;;;61.07;;
18338;SDS011;9295;44.484;11.240;2022-11-10T16:43:17;99.43;;;61.97;;